Time;durP1;ratioP1;P1;durP2;ratioP2;P2;SDS_P1;SDS_P2;PMS_P1;PMS_P2;Temp;Humidity;BMP_temperature;BMP_pressure;BME280_temperature;BME280_humidity;BME280_pressure;Samples;Min_cycle;Max_cycle;Signal;HPM_P1;HPM_P2
2022/04/26 03:36:47;;;;;;;6.33;5.00;;;7.00;99.90;;;;;;4902219;29;20224;-82
2022/04/26 03:39:12;;;;;;;6.33;5.27;;;6.90;99.90;;;;;;4900419;29;20183;-82
2022/04/26 03:41:38;;;;;;;6.10;5.13;;;6.80;99.90;;;;;;4901753;29;20553;-82
2022/04/26 03:44:04;;;;;;;5.77;5.17;;;6.90;99.90;;;;;;4901767;29;20175;-82
2022/04/26 03:46:29;;;;;;;5.17;4.67;;;6.90;99.90;;;;;;4900429;29;20211;-82
2022/04/26 03:48:55;;;;;;;6.97;5.43;;;6.80;99.90;;;;;;4901769;29;20179;-85
2022/04/26 03:51:21;;;;;;;5.53;4.90;;;6.70;99.90;;;;;;4899947;29;20207;-82
2022/04/26 03:53:47;;;;;;;8.60;5.33;;;6.60;99.90;;;;;;4900485;29;20622;-83
2022/04/26 03:56:13;;;;;;;7.10;5.00;;;6.50;99.90;;;;;;4900431;29;20186;-83
2022/04/26 03:58:38;;;;;;;5.30;4.77;;;6.50;99.90;;;;;;4901400;29;20226;-82
2022/04/26 04:01:04;;;;;;;5.10;3.47;;;6.60;99.90;;;;;;4901513;29;20183;-82
2022/04/26 04:03:30;;;;;;;3.23;2.93;;;6.60;99.90;;;;;;4900520;29;20235;-82
2022/04/26 04:05:56;;;;;;;3.23;2.93;;;6.60;99.90;;;;;;4900342;29;20187;-83
2022/04/26 04:08:22;;;;;;;3.80;2.60;;;6.70;99.90;;;;;;4900180;29;20194;-83
2022/04/26 04:10:47;;;;;;;3.10;2.80;;;6.60;99.90;;;;;;4900044;29;20190;-83
2022/04/26 04:13:13;;;;;;;2.90;2.70;;;6.60;99.90;;;;;;4899973;29;20235;-82
2022/04/26 04:15:39;;;;;;;3.07;2.73;;;6.70;99.90;;;;;;4901183;29;20172;-83
2022/04/26 04:19:17;;;;;;;3.10;2.80;;;6.60;99.90;;;;;;4901371;29;20175;-82
2022/04/26 04:20:54;;;;;;;10.17;2.90;;;6.70;99.90;;;;;;4900965;29;20184;-83
2022/04/26 04:23:21;;;;;;;3.00;2.70;;;6.60;99.90;;;;;;4899826;29;20179;-84
2022/04/26 04:25:49;;;;;;;3.53;2.90;;;6.50;99.90;;;;;;4899939;29;20354;-83
2022/04/26 04:28:15;;;;;;;7.03;3.13;;;6.50;99.90;;;;;;4899710;29;20627;-83
2022/04/26 04:30:42;;;;;;;31.00;3.47;;;6.50;99.90;;;;;;4901177;29;20267;-82
2022/04/26 04:33:08;;;;;;;14.63;3.63;;;6.40;99.90;;;;;;4899633;29;20187;-82
2022/04/26 04:35:37;;;;;;;8.20;3.70;;;6.40;99.90;;;;;;4899677;29;20569;-84
2022/04/26 04:38:03;;;;;;;9.20;5.33;;;6.40;99.90;;;;;;4900695;29;20263;-83
2022/04/26 04:40:29;;;;;;;15.47;4.83;;;6.50;99.90;;;;;;4899463;29;20593;-82
2022/04/26 04:42:55;;;;;;;13.03;5.00;;;6.40;99.90;;;;;;4900617;29;20171;-82
2022/04/26 04:45:21;;;;;;;5.47;4.97;;;6.40;99.90;;;;;;4900801;29;20183;-83
2022/04/26 04:47:47;;;;;;;7.80;4.97;;;6.40;99.90;;;;;;4900516;29;20302;-82
2022/04/26 04:50:12;;;;;;;6.10;5.03;;;6.40;99.90;;;;;;4899350;29;20184;-82
2022/04/26 04:52:38;;;;;;;5.50;5.00;;;6.50;99.90;;;;;;4900419;29;20198;-83
2022/04/26 04:55:04;;;;;;;6.23;5.17;;;6.50;99.90;;;;;;4899257;29;20620;-83
2022/04/26 04:57:30;;;;;;;4.50;4.00;;;6.60;99.90;;;;;;4900433;29;20180;-83
2022/04/26 04:59:59;;;;;;;5.00;4.50;;;6.70;99.90;;;;;;4900314;29;20636;-83
2022/04/26 05:02:24;;;;;;;5.90;4.37;;;6.70;99.90;;;;;;4899231;29;20204;-83
2022/04/26 05:04:50;;;;;;;17.93;5.57;;;6.70;99.90;;;;;;4900368;29;20211;-83
2022/04/26 05:07:16;;;;;;;32.57;6.77;;;6.80;99.90;;;;;;4900284;29;20211;-83
2022/04/26 05:09:41;;;;;;;15.17;7.10;;;6.70;99.90;;;;;;4899109;29;20234;-83
2022/04/26 05:12:08;;;;;;;19.47;7.10;;;6.80;99.90;;;;;;4900798;29;20215;-91
2022/04/26 05:14:33;;;;;;;15.90;8.50;;;6.90;99.90;;;;;;4899630;29;20175;-91
2022/04/26 05:16:59;;;;;;;13.40;8.60;;;6.90;99.90;;;;;;4899303;29;20175;-82
2022/04/26 05:19:25;;;;;;;9.23;7.83;;;7.00;99.90;;;;;;4898927;29;20190;-84
2022/04/26 05:21:50;;;;;;;8.67;7.47;;;7.10;99.90;;;;;;4900078;29;20182;-87
2022/04/26 05:27:00;;;;;;;8.63;7.73;;;7.30;99.90;;;;;;4901053;29;20614;-82
2022/04/26 05:29:26;;;;;;;10.73;7.33;;;7.40;99.90;;;;;;4899252;29;20187;-91
2022/04/26 05:31:52;;;;;;;8.73;7.57;;;7.50;99.90;;;;;;4898952;29;20525;-92
2022/04/26 05:34:17;;;;;;;9.43;8.43;;;7.70;99.90;;;;;;4899915;29;20254;-89
2022/04/26 05:36:43;;;;;;;9.83;8.70;;;7.80;99.90;;;;;;5414465;23;20253;-89
2022/04/26 05:39:09;;;;;;;10.80;9.70;;;7.90;99.90;;;;;;4933016;29;20668;-86
2022/04/26 05:41:35;;;;;;;11.90;10.23;;;7.90;99.90;;;;;;4932630;29;20189;-88
2022/04/26 05:44:00;;;;;;;11.60;10.40;;;8.00;99.90;;;;;;4918239;29;20188;-89
2022/04/26 05:46:26;;;;;;;14.37;10.43;;;8.10;99.90;;;;;;4915364;29;20727;-86
2022/04/26 05:48:52;;;;;;;13.13;11.80;;;8.20;99.90;;;;;;4914959;29;20202;-87
2022/04/26 05:51:18;;;;;;;13.60;11.27;;;8.30;99.90;;;;;;4931481;29;20185;-87
2022/04/26 05:53:44;;;;;;;13.07;11.67;;;8.40;99.90;;;;;;4915433;29;20182;-89
2022/04/26 05:56:10;;;;;;;12.87;11.20;;;8.50;99.90;;;;;;4915364;29;20173;-89
2022/04/26 05:58:36;;;;;;;12.70;11.40;;;8.50;99.90;;;;;;4916178;29;20195;-89
2022/04/26 06:01:03;;;;;;;15.83;11.93;;;8.60;99.90;;;;;;4915020;29;20175;-89
2022/04/26 06:03:29;;;;;;;13.90;12.53;;;8.70;99.90;;;;;;4914567;29;20186;-89
2022/04/26 06:05:57;;;;;;;16.00;14.23;;;8.80;99.90;;;;;;4915354;29;20189;-88
2022/04/26 06:08:23;;;;;;;15.80;13.60;;;8.90;99.90;;;;;;4915380;29;20191;-88
2022/04/26 06:10:48;;;;;;;13.83;12.33;;;8.90;99.90;;;;;;4915277;29;20253;-88
2022/04/26 06:13:15;;;;;;;15.60;13.17;;;9.00;99.90;;;;;;4918267;29;20623;-87
2022/04/26 06:15:41;;;;;;;14.43;11.50;;;9.10;99.90;;;;;;4921473;29;20170;-88
2022/04/26 06:18:07;;;;;;;13.57;12.17;;;9.20;99.90;;;;;;4922629;29;20167;-87
2022/04/26 06:20:33;;;;;;;12.53;11.20;;;9.20;99.90;;;;;;4921424;29;20253;-89
2022/04/26 06:22:58;;;;;;;15.87;12.37;;;9.30;99.90;;;;;;4921303;29;20210;-89
2022/04/26 06:25:24;;;;;;;14.37;12.87;;;9.40;99.90;;;;;;4921435;29;20171;-87
2022/04/26 06:27:50;;;;;;;14.37;12.57;;;9.50;99.90;;;;;;4921472;29;20610;-88
2022/04/26 06:30:17;;;;;;;14.10;11.57;;;9.60;99.90;;;;;;4920950;29;20208;-89
2022/04/26 06:32:43;;;;;;;12.90;11.50;;;9.60;99.90;;;;;;4921012;29;20217;-88
2022/04/26 06:35:09;;;;;;;16.33;13.53;;;9.70;99.90;;;;;;4921091;29;20197;-88
2022/04/26 06:37:35;;;;;;;14.00;12.43;;;9.80;99.90;;;;;;4905997;29;20260;-88
2022/04/26 06:40:01;;;;;;;14.63;12.60;;;10.00;99.90;;;;;;4913969;29;20670;-89
2022/04/26 06:42:27;;;;;;;18.33;13.63;;;10.10;99.90;;;;;;4921507;29;20190;-89
2022/04/26 06:44:52;;;;;;;15.60;13.20;;;10.10;99.90;;;;;;4921269;29;20186;-88
2022/04/26 06:47:18;;;;;;;17.87;14.83;;;10.30;99.90;;;;;;4921063;29;20214;-89
2022/04/26 06:49:44;;;;;;;16.73;13.77;;;10.30;99.90;;;;;;4921018;29;20199;-87
2022/04/26 06:52:10;;;;;;;21.30;15.70;;;10.50;99.90;;;;;;4920867;29;20179;-89
2022/04/26 06:54:35;;;;;;;20.10;15.90;;;10.50;99.90;;;;;;4921055;29;20183;-87
2022/04/26 06:57:01;;;;;;;17.70;14.52;;;10.70;99.90;;;;;;4920707;29;20186;-88
2022/04/26 06:59:27;;;;;;;22.15;16.42;;;10.80;99.90;;;;;;4920560;29;20210;-88
2022/04/26 07:01:54;;;;;;;20.92;16.75;;;10.90;99.90;;;;;;4921102;29;20182;-89
2022/04/26 07:04:21;;;;;;;20.52;15.27;;;11.00;99.90;;;;;;4920542;29;20186;-90
2022/04/26 07:06:47;;;;;;;22.37;17.27;;;11.10;99.90;;;;;;4922315;29;20729;-89
2022/04/26 07:09:13;;;;;;;21.98;17.90;;;11.20;99.90;;;;;;4920876;29;20233;-91
2022/04/26 07:11:42;;;;;;;23.48;17.92;;;11.30;99.90;;;;;;4921105;29;20638;-89
2022/04/26 07:14:13;;;;;;;23.58;16.92;;;11.40;99.90;;;;;;4921095;29;20545;-90
2022/04/26 07:16:38;;;;;;;27.13;18.38;;;11.50;99.90;;;;;;4920846;29;20194;-89
2022/04/26 07:19:04;;;;;;;23.50;18.05;;;11.70;99.90;;;;;;4921098;29;20621;-89
2022/04/26 07:21:31;;;;;;;19.73;17.00;;;11.90;99.90;;;;;;4921341;29;20181;-89
2022/04/26 07:23:57;;;;;;;26.83;17.55;;;12.00;99.90;;;;;;4920805;29;20186;-89
2022/04/26 07:26:23;;;;;;;22.23;17.20;;;12.10;99.90;;;;;;4917362;29;20206;-88
2022/04/26 07:28:48;;;;;;;23.42;17.92;;;12.20;99.90;;;;;;4918257;29;20202;-87
2022/04/26 07:31:14;;;;;;;23.70;18.55;;;12.40;99.90;;;;;;4917477;29;20214;-88
2022/04/26 07:36:25;;;;;;;23.23;18.50;;;12.60;99.90;;;;;;4898803;29;20427;-88
2022/04/26 07:38:55;;;;;;;22.45;19.08;;;12.70;99.90;;;;;;4913183;29;20206;-88
2022/04/26 07:41:21;;;;;;;21.40;16.63;;;12.80;99.90;;;;;;4915860;29;20860;-89
2022/04/26 07:43:47;;;;;;;22.05;16.80;;;13.00;99.90;;;;;;4916358;29;20552;-89
2022/04/26 07:46:14;;;;;;;21.20;15.88;;;13.10;99.90;;;;;;4915884;29;20535;-90
2022/04/26 07:48:43;;;;;;;20.48;15.32;;;13.20;99.90;;;;;;4917661;29;20205;-89
2022/04/26 07:51:09;;;;;;;21.67;15.73;;;13.30;99.90;;;;;;4917143;29;20179;-91
2022/04/26 07:53:37;;;;;;;21.98;14.85;;;13.50;99.90;;;;;;4916537;29;20285;-89
2022/04/26 07:56:04;;;;;;;18.35;14.57;;;13.50;99.90;;;;;;4917326;29;20242;-92
2022/04/26 07:58:32;;;;;;;21.58;15.45;;;13.60;99.90;;;;;;4918421;29;20189;-88
2022/04/26 08:00:59;;;;;;;15.85;14.05;;;13.80;99.90;;;;;;4917487;29;20679;-90
2022/04/26 08:03:25;;;;;;;18.60;13.50;;;13.90;99.90;;;;;;4916863;29;20190;-88
2022/04/26 08:05:52;;;;;;;17.77;12.82;;;13.90;99.90;;;;;;4917736;29;20179;-90
2022/04/26 08:08:18;;;;;;;13.55;11.05;;;14.10;99.90;;;;;;4916966;29;20203;-90
2022/04/26 08:10:45;;;;;;;13.00;9.15;;;14.20;99.90;;;;;;4916849;29;20183;-89
2022/04/26 08:13:11;;;;;;;12.77;9.88;;;14.30;99.90;;;;;;4917368;29;20182;-88
2022/04/26 08:15:39;;;;;;;12.13;10.00;;;14.40;99.90;;;;;;4918040;29;20166;-89
2022/04/26 08:18:05;;;;;;;9.40;7.80;;;14.40;99.90;;;;;;4917297;29;20190;-91
2022/04/26 08:20:31;;;;;;;12.32;9.38;;;14.60;99.90;;;;;;4917317;29;20666;-89
2022/04/26 08:22:57;;;;;;;12.00;8.85;;;14.60;99.90;;;;;;4917389;29;20191;-88
2022/04/26 08:28:06;;;;;;;12.80;8.70;;;14.70;99.90;;;;;;4919507;29;20226;-86
2022/04/26 08:30:33;;;;;;;9.55;8.43;;;14.80;99.90;;;;;;4918679;29;20202;-90
2022/04/26 08:32:59;;;;;;;12.73;8.20;;;15.00;99.90;;;;;;4918011;29;20190;-90
2022/04/26 08:35:27;;;;;;;9.50;7.22;;;15.00;99.90;;;;;;4916590;29;20184;-89
2022/04/26 08:37:53;;;;;;;8.93;7.10;;;15.10;99.90;;;;;;4916358;29;20234;-90
2022/04/26 08:40:19;;;;;;;7.78;6.13;;;15.20;99.90;;;;;;4916892;29;20342;-89
2022/04/26 08:42:47;;;;;;;9.00;6.88;;;15.30;99.90;;;;;;4917113;29;20274;-90
2022/04/26 08:45:15;;;;;;;8.70;6.55;;;15.40;99.90;;;;;;4916992;29;20586;-91
2022/04/26 08:53:19;;;;;;;7.35;5.53;;;15.70;99.90;;;;;;4917459;29;20584;-88
2022/04/26 08:55:47;;;;;;;6.88;5.53;;;15.90;99.90;;;;;;4916769;29;20191;-91
2022/04/26 08:58:14;;;;;;;9.95;5.25;;;16.00;99.90;;;;;;4920512;29;20179;-88
2022/04/26 09:01:01;;;;;;;6.60;4.90;;;15.90;99.90;;;;;;4918350;29;20185;-89
2022/04/26 09:03:30;;;;;;;11.20;5.28;;;15.80;99.90;;;;;;4919598;29;20555;-89
2022/04/26 09:06:05;;;;;;;6.75;4.65;;;15.90;99.90;;;;;;4918005;29;20179;-88
2022/04/26 09:08:35;;;;;;;5.25;4.25;;;16.00;99.90;;;;;;4916724;29;20187;-89
2022/04/26 09:11:01;;;;;;;7.93;4.78;;;16.20;99.90;;;;;;4917010;29;20171;-89
2022/04/26 09:13:27;;;;;;;6.20;4.75;;;16.50;99.90;;;;;;4916268;29;20669;-90
2022/04/26 09:15:56;;;;;;;6.93;4.82;;;16.70;97.30;;;;;;4915299;29;20182;-89
2022/04/26 09:18:30;;;;;;;6.03;4.13;;;16.20;96.50;;;;;;4916271;29;20185;-91
2022/04/26 09:21:09;;;;;;;7.53;5.07;;;16.20;98.20;;;;;;4916094;29;20185;-88
2022/04/26 09:23:40;;;;;;;5.95;4.30;;;16.00;99.50;;;;;;4916040;29;20577;-91
2022/04/26 09:26:11;;;;;;;6.60;4.88;;;15.80;99.90;;;;;;4916070;29;20170;-90
2022/04/26 09:28:43;;;;;;;6.82;4.90;;;15.60;99.70;;;;;;4915826;29;20199;-88
2022/04/26 09:31:23;;;;;;;9.35;5.45;;;15.50;99.90;;;;;;4916265;29;20179;-90
2022/04/26 09:33:59;;;;;;;8.40;5.82;;;15.20;99.90;;;;;;4916646;29;20190;-90
2022/04/26 09:36:31;;;;;;;8.23;5.82;;;15.20;99.90;;;;;;4899925;29;20366;-89
2022/04/26 09:38:58;;;;;;;9.02;5.63;;;14.90;99.90;;;;;;4896889;29;20267;-90
2022/04/26 09:41:26;;;;;;;6.88;5.63;;;14.80;99.90;;;;;;4897437;29;20172;-89
2022/04/26 09:44:03;;;;;;;7.43;5.00;;;14.70;99.90;;;;;;4916157;29;20175;-89
2022/04/26 09:46:49;;;;;;;7.15;4.53;;;14.70;99.90;;;;;;4916037;29;20265;-89
2022/04/26 09:49:18;;;;;;;6.03;4.20;;;14.70;99.90;;;;;;4915863;29;20706;-89
2022/04/26 09:51:47;;;;;;;8.00;5.03;;;14.60;99.90;;;;;;4916836;29;20174;-90
2022/04/26 09:54:13;;;;;;;5.60;4.85;;;14.40;99.90;;;;;;4915328;29;20185;-90
2022/04/26 09:56:39;;;;;;;6.47;4.68;;;14.40;99.90;;;;;;4914930;29;20182;-88
2022/04/26 09:59:07;;;;;;;6.40;4.93;;;14.30;99.90;;;;;;4914512;29;20210;-89
2022/04/26 10:01:43;;;;;;;6.35;5.05;;;14.20;99.90;;;;;;4913755;29;20178;-90
2022/04/26 10:04:17;;;;;;;9.02;5.57;;;14.20;99.90;;;;;;4914922;29;20193;-90
2022/04/26 10:06:43;;;;;;;8.80;5.40;;;14.20;99.90;;;;;;4915556;29;20670;-89
2022/04/26 10:09:10;;;;;;;7.85;5.15;;;14.30;99.90;;;;;;4915227;29;20202;-90
2022/04/26 10:11:37;;;;;;;11.18;5.95;;;14.20;99.90;;;;;;4915611;29;20294;-89
2022/04/26 10:14:07;;;;;;;7.90;5.05;;;14.10;99.90;;;;;;4915240;29;20177;-88
2022/04/26 10:16:33;;;;;;;7.55;5.68;;;14.10;99.90;;;;;;4915150;29;20666;-89
2022/04/26 10:19:06;;;;;;;9.23;5.20;;;14.00;99.90;;;;;;4915059;29;20228;-88
2022/04/26 10:21:38;;;;;;;11.50;5.47;;;14.00;99.90;;;;;;4914403;29;20670;-91
2022/04/26 10:24:18;;;;;;;5.72;4.78;;;14.00;99.90;;;;;;4930947;29;20297;-89
2022/04/26 10:26:46;;;;;;;7.82;6.18;;;14.00;99.90;;;;;;4915169;29;20194;-90
2022/04/26 10:29:22;;;;;;;10.55;5.75;;;14.00;99.90;;;;;;4915126;29;20225;-91
2022/04/26 10:31:58;;;;;;;8.52;6.88;;;14.10;99.90;;;;;;4915120;29;20182;-91
2022/04/26 10:34:28;;;;;;;11.82;6.50;;;14.10;99.90;;;;;;4914986;29;20193;-91
2022/04/26 10:37:00;;;;;;;12.65;6.80;;;14.10;99.90;;;;;;4914991;29;20248;-88
2022/04/26 10:39:30;;;;;;;7.50;6.28;;;14.20;99.90;;;;;;4916305;29;20266;-88
2022/04/26 10:41:56;;;;;;;11.52;6.22;;;14.20;99.90;;;;;;4917721;29;20278;-90
2022/04/26 10:44:26;;;;;;;8.38;6.30;;;14.20;99.90;;;;;;4915602;29;20325;-89
2022/04/26 10:46:58;;;;;;;8.50;6.15;;;14.20;99.90;;;;;;4915273;29;20218;-90
2022/04/26 10:49:37;;;;;;;7.38;5.53;;;14.20;99.90;;;;;;4914860;29;20599;-88
2022/04/26 10:52:19;;;;;;;10.68;5.82;;;14.10;99.90;;;;;;4917680;29;20551;-89
2022/04/26 10:57:27;;;;;;;13.90;5.57;;;14.00;99.90;;;;;;4916023;29;20253;-88
2022/04/26 10:59:59;;;;;;;5.63;3.78;;;14.10;99.90;;;;;;4917578;29;20776;-89
2022/04/26 11:02:28;;;;;;;3.97;3.55;;;14.10;99.90;;;;;;4918712;29;20277;-89
2022/04/26 11:05:02;;;;;;;7.93;4.20;;;14.00;99.90;;;;;;4918532;29;20194;-90
2022/04/26 11:07:29;;;;;;;5.47;4.28;;;14.10;99.90;;;;;;4918804;29;20193;-90
2022/04/26 11:09:56;;;;;;;9.45;4.75;;;14.20;99.90;;;;;;4918178;29;20213;-90
2022/04/26 11:12:25;;;;;;;5.75;4.53;;;14.20;99.90;;;;;;4918211;29;20194;-92
2022/04/26 11:14:53;;;;;;;6.38;4.43;;;14.30;99.90;;;;;;4917690;29;20631;-89
2022/04/26 11:17:21;;;;;;;4.97;4.10;;;14.40;99.90;;;;;;4918228;29;20621;-89
2022/04/26 11:19:55;;;;;;;7.32;4.30;;;14.40;99.90;;;;;;4918262;29;20214;-89
2022/04/26 11:22:22;;;;;;;5.40;4.10;;;14.40;99.90;;;;;;4918408;29;20179;-90
2022/04/26 11:30:31;;;;;;;4.75;3.83;;;14.50;99.90;;;;;;4919475;29;20225;-91
2022/04/26 11:32:59;;;;;;;5.25;3.42;;;14.60;99.90;;;;;;4917650;29;20558;-92
2022/04/26 11:35:25;;;;;;;5.38;3.90;;;14.50;99.90;;;;;;4919300;29;20167;-89
2022/04/26 11:37:59;;;;;;;4.50;3.33;;;14.60;99.90;;;;;;4918036;29;20366;-90
2022/04/26 11:40:37;;;;;;;4.53;3.25;;;14.60;99.90;;;;;;4917689;29;20211;-90
2022/04/26 11:43:07;;;;;;;4.65;3.25;;;14.50;99.90;;;;;;4917931;29;20230;-90
2022/04/26 11:45:35;;;;;;;5.32;3.08;;;14.70;99.90;;;;;;4918186;29;20194;-90
2022/04/26 11:48:03;;;;;;;5.47;3.35;;;14.70;99.90;;;;;;4917694;29;20323;-88
2022/04/26 11:50:30;;;;;;;4.18;2.90;;;14.80;99.90;;;;;;4917964;29;20195;-90
2022/04/26 11:53:00;;;;;;;3.80;3.08;;;15.00;99.90;;;;;;4917385;29;20167;-89
2022/04/26 11:55:31;;;;;;;6.13;3.00;;;15.20;99.90;;;;;;4917538;29;20170;-89
2022/04/26 11:58:09;;;;;;;5.93;2.80;;;15.20;99.90;;;;;;4903329;29;20268;-91
2022/04/26 12:00:49;;;;;;;4.85;3.28;;;15.20;99.90;;;;;;4898727;29;20214;-89
2022/04/26 12:03:16;;;;;;;3.53;2.42;;;15.20;99.90;;;;;;4915674;29;20311;-89
2022/04/26 12:05:46;;;;;;;3.67;2.97;;;15.70;99.90;;;;;;4917743;29;20295;-89
2022/04/26 12:08:12;;;;;;;5.82;2.78;;;16.10;99.90;;;;;;4917647;29;20289;-91
2022/04/26 12:10:38;;;;;;;3.83;2.40;;;16.20;98.30;;;;;;4917565;29;20195;-89
2022/04/26 12:13:05;;;;;;;3.13;2.15;;;16.40;98.50;;;;;;4917108;29;20238;-89
2022/04/26 12:15:36;;;;;;;4.07;2.13;;;16.80;98.10;;;;;;4917834;29;20171;-90
2022/04/26 12:18:13;;;;;;;2.33;2.00;;;17.00;96.80;;;;;;4917389;29;20261;-90
2022/04/26 12:21:00;;;;;;;3.63;2.47;;;17.10;94.00;;;;;;4917021;29;20245;-90
2022/04/26 12:23:27;;;;;;;2.33;1.75;;;17.30;94.30;;;;;;4917112;29;20233;-91
2022/04/26 12:26:00;;;;;;;3.22;2.10;;;17.70;94.80;;;;;;4918202;29;20281;-90
2022/04/26 12:28:26;;;;;;;3.65;1.90;;;17.90;91.30;;;;;;4917249;29;20346;-90
2022/04/26 12:30:52;;;;;;;2.45;1.80;;;18.10;91.40;;;;;;4916188;29;20300;-89
2022/04/26 12:33:36;;;;;;;3.00;1.90;;;18.40;91.60;;;;;;4916570;29;20187;-90
2022/04/26 12:36:04;;;;;;;4.95;2.00;;;18.50;89.90;;;;;;4916938;29;20257;-90
2022/04/26 12:38:45;;;;;;;2.25;2.00;;;18.60;88.00;;;;;;4918127;29;20183;-91
2022/04/26 12:41:10;;;;;;;5.25;1.65;;;18.60;88.70;;;;;;4917213;29;20189;-90
2022/04/26 12:43:37;;;;;;;2.10;1.80;;;18.60;86.60;;;;;;4917329;29;20627;-90
2022/04/26 12:46:06;;;;;;;4.07;2.10;;;18.60;87.20;;;;;;4932534;29;20186;-91
2022/04/26 12:51:27;;;;;;;3.25;2.35;;;18.70;88.00;;;;;;4888257;29;20191;-90
2022/04/26 12:54:06;;;;;;;2.58;1.60;;;18.80;85.00;;;;;;4916591;29;20598;-90
2022/04/26 12:56:32;;;;;;;4.25;2.20;;;18.50;82.00;;;;;;4916344;29;20166;-90
2022/04/26 12:58:58;;;;;;;3.33;2.10;;;18.50;82.40;;;;;;4916713;29;20301;-90
2022/04/26 13:01:24;;;;;;;3.95;2.53;;;18.30;83.00;;;;;;4916617;29;20191;-89
2022/04/26 13:03:49;;;;;;;3.15;2.30;;;18.50;81.70;;;;;;4916543;29;20187;-90
2022/04/26 13:06:17;;;;;;;5.43;2.20;;;18.50;85.10;;;;;;4916211;29;20186;-90
2022/04/26 13:08:48;;;;;;;3.53;2.67;;;18.70;82.70;;;;;;4916440;29;20254;-91
2022/04/26 13:11:17;;;;;;;4.15;2.70;;;18.30;82.30;;;;;;4916216;29;20199;-89
2022/04/26 13:13:46;;;;;;;4.60;2.60;;;17.90;82.80;;;;;;4912900;29;20656;-90
2022/04/26 13:16:12;;;;;;;4.05;2.40;;;17.90;82.00;;;;;;4897594;29;20178;-89
2022/04/26 13:18:38;;;;;;;4.75;2.25;;;17.60;82.90;;;;;;4910686;29;20253;-90
2022/04/26 13:21:05;;;;;;;5.18;2.60;;;17.30;86.20;;;;;;4916221;29;20643;-90
2022/04/26 13:23:33;;;;;;;2.83;2.28;;;17.20;88.10;;;;;;4915099;29;20222;-90
2022/04/26 13:26:01;;;;;;;4.28;2.53;;;17.00;90.80;;;;;;4916353;29;20186;-90
2022/04/26 13:28:29;;;;;;;3.38;2.45;;;17.00;88.80;;;;;;4916997;29;20643;-90
2022/04/26 13:30:55;;;;;;;4.20;3.10;;;17.00;91.10;;;;;;4916304;29;20193;-90
2022/04/26 13:33:20;;;;;;;3.78;3.20;;;17.00;94.50;;;;;;4916994;29;20171;-89
2022/04/26 13:35:46;;;;;;;5.72;3.28;;;16.90;96.10;;;;;;4916256;29;20182;-91
2022/04/26 13:38:13;;;;;;;5.53;3.17;;;16.90;97.50;;;;;;4916400;29;20718;-89
2022/04/26 13:40:40;;;;;;;4.40;3.55;;;16.90;98.30;;;;;;4915968;29;20674;-91
2022/04/26 13:43:07;;;;;;;4.07;3.00;;;16.90;98.10;;;;;;4916137;29;20668;-90
2022/04/26 13:45:34;;;;;;;5.57;3.70;;;16.90;96.30;;;;;;4915696;29;20209;-89
2022/04/26 13:48:03;;;;;;;5.35;3.60;;;16.80;96.50;;;;;;4916678;29;20205;-90
2022/04/26 13:50:29;;;;;;;5.60;3.40;;;16.70;96.50;;;;;;4915718;29;20241;-90
2022/04/26 13:52:56;;;;;;;5.22;3.45;;;16.60;95.90;;;;;;4915837;29;20654;-90
2022/04/26 13:55:26;;;;;;;5.53;3.47;;;16.50;98.90;;;;;;4915726;29;20627;-91
2022/04/26 13:57:54;;;;;;;4.22;3.35;;;16.40;99.90;;;;;;4916205;29;20190;-91
2022/04/26 14:00:20;;;;;;;6.13;3.67;;;16.30;99.90;;;;;;4915633;29;20261;-89
2022/04/26 14:02:48;;;;;;;4.82;3.53;;;16.20;99.30;;;;;;4915027;29;20285;-90
2022/04/26 14:05:15;;;;;;;5.13;3.03;;;16.20;99.60;;;;;;4915642;29;20194;-89
2022/04/26 14:07:41;;;;;;;4.88;3.33;;;16.10;99.90;;;;;;4915642;29;20265;-90
2022/04/26 14:10:07;;;;;;;4.20;3.30;;;16.00;99.90;;;;;;4915418;29;20277;-90
2022/04/26 14:12:34;;;;;;;3.88;3.28;;;16.10;98.80;;;;;;4916787;29;20183;-88
2022/04/26 14:23:13;;;;;;;3.30;2.75;;;15.90;99.10;;;;;;4916819;29;20569;-90
2022/04/26 14:25:39;;;;;;;3.20;2.90;;;15.90;99.70;;;;;;4915445;29;20183;-90
2022/04/26 14:28:05;;;;;;;4.38;3.00;;;15.90;97.00;;;;;;4915084;29;20237;-90
2022/04/26 14:30:31;;;;;;;3.33;2.80;;;15.80;98.10;;;;;;4915084;29;20206;-90
2022/04/26 14:32:57;;;;;;;4.30;2.92;;;15.90;98.60;;;;;;4915244;29;20199;-91
2022/04/26 14:35:23;;;;;;;4.32;3.40;;;15.90;98.70;;;;;;4918122;29;20215;-89
2022/04/26 14:37:51;;;;;;;6.03;3.22;;;16.00;98.60;;;;;;4918786;29;20233;-88
2022/04/26 14:40:17;;;;;;;4.60;3.42;;;16.00;99.20;;;;;;4919050;29;20256;-89
2022/04/26 14:42:46;;;;;;;4.43;3.20;;;16.00;97.80;;;;;;4918791;29;20599;-88
2022/04/26 14:45:13;;;;;;;6.05;3.78;;;16.00;98.20;;;;;;4918737;29;20194;-87
2022/04/26 14:47:39;;;;;;;3.88;3.28;;;16.10;95.70;;;;;;4918640;29;20203;-88
2022/04/26 14:50:05;;;;;;;3.70;3.20;;;16.00;95.40;;;;;;4918703;29;20342;-88
2022/04/26 14:52:32;;;;;;;3.88;3.45;;;16.00;97.30;;;;;;4919248;29;20163;-88
2022/04/26 14:55:00;;;;;;;6.40;3.40;;;16.00;96.90;;;;;;4918567;29;20185;-88
2022/04/26 14:57:26;;;;;;;4.45;3.22;;;16.00;98.00;;;;;;4918951;29;20178;-89
2022/04/26 14:59:54;;;;;;;3.78;3.35;;;16.00;98.70;;;;;;4918762;29;20206;-87
2022/04/26 15:02:21;;;;;;;8.00;3.63;;;16.00;95.40;;;;;;4918269;29;20183;-87
2022/04/26 15:04:48;;;;;;;4.38;3.38;;;16.00;95.20;;;;;;4918309;29;20185;-89
2022/04/26 15:07:15;;;;;;;4.97;2.97;;;15.90;96.50;;;;;;4918270;29;20198;-88
2022/04/26 15:09:46;;;;;;;5.22;3.30;;;15.90;97.50;;;;;;4918094;29;20618;-87
2022/04/26 15:17:44;;;;;;;3.78;3.17;;;16.00;96.00;;;;;;4919883;29;20206;-88
2022/04/26 15:20:12;;;;;;;5.70;3.30;;;16.00;95.30;;;;;;4918230;29;20206;-88
2022/04/26 15:22:38;;;;;;;5.22;3.13;;;16.00;95.30;;;;;;4918545;29;20174;-88
2022/04/26 15:25:06;;;;;;;8.50;3.42;;;16.00;97.40;;;;;;4918657;29;20194;-87
2022/04/26 15:27:34;;;;;;;10.55;3.45;;;16.00;98.70;;;;;;4918328;29;20194;-91
2022/04/26 15:30:01;;;;;;;6.03;4.00;;;16.00;99.50;;;;;;4918053;29;20205;-88
2022/04/26 15:32:26;;;;;;;4.75;3.50;;;16.00;95.60;;;;;;4918173;29;20167;-90
2022/04/26 15:34:52;;;;;;;6.82;3.42;;;16.00;95.50;;;;;;4918028;29;20277;-89
2022/04/26 15:37:19;;;;;;;6.05;3.17;;;16.00;98.10;;;;;;4918209;29;20241;-89
2022/04/26 15:39:47;;;;;;;5.07;3.10;;;16.10;97.40;;;;;;4918081;29;20214;-90
2022/04/26 15:42:14;;;;;;;5.03;2.78;;;16.10;95.50;;;;;;4917894;29;20281;-90
2022/04/26 15:44:40;;;;;;;3.30;2.70;;;16.10;94.40;;;;;;4917847;29;20635;-90
2022/04/26 15:47:06;;;;;;;5.72;3.00;;;16.00;93.60;;;;;;4917169;29;20218;-91
2022/04/26 15:49:32;;;;;;;4.43;3.30;;;16.10;94.60;;;;;;4917545;29;20207;-90
2022/04/26 15:51:57;;;;;;;3.60;2.80;;;16.10;92.70;;;;;;4917733;29;20179;-90
2022/04/26 15:54:24;;;;;;;5.13;3.25;;;16.00;93.60;;;;;;4919268;29;20160;-90
2022/04/26 15:56:49;;;;;;;3.80;2.88;;;16.00;94.00;;;;;;4917141;29;20273;-88
2022/04/26 15:59:15;;;;;;;5.40;2.72;;;15.90;94.00;;;;;;4917782;29;20297;-89
2022/04/26 16:01:41;;;;;;;3.67;2.35;;;15.90;93.30;;;;;;4912614;29;20651;-89
2022/04/26 16:04:09;;;;;;;3.83;2.72;;;15.80;93.80;;;;;;4898736;29;20171;-89
2022/04/26 16:06:37;;;;;;;4.88;2.90;;;15.70;94.10;;;;;;4898308;29;20210;-89
2022/04/26 16:20:30;;;;;;;4.10;3.00;;;15.50;94.50;;;;;;4918239;29;20244;-90
2022/04/26 16:22:58;;;;;;;5.93;3.17;;;15.40;94.50;;;;;;4933187;29;20174;-89
2022/04/26 16:25:24;;;;;;;5.22;3.10;;;15.40;94.90;;;;;;4916791;29;20194;-90
2022/04/26 16:27:50;;;;;;;3.72;2.90;;;15.40;94.80;;;;;;4898323;29;20206;-87
2022/04/26 16:30:16;;;;;;;5.05;2.80;;;15.40;94.90;;;;;;4898200;29;20195;-90
2022/04/26 16:32:42;;;;;;;4.13;2.85;;;15.30;95.70;;;;;;4911685;29;20182;-89
2022/04/26 16:35:10;;;;;;;4.05;2.60;;;15.30;95.80;;;;;;4917000;29;20267;-88
2022/04/26 16:37:41;;;;;;;3.78;3.03;;;15.20;96.00;;;;;;4916678;29;20237;-89
2022/04/26 16:40:09;;;;;;;5.45;3.15;;;15.30;96.00;;;;;;4917014;29;20214;-88
2022/04/26 16:42:39;;;;;;;5.35;3.15;;;15.30;97.40;;;;;;4917149;29;20801;-89
2022/04/26 16:45:06;;;;;;;4.82;3.05;;;15.20;97.70;;;;;;4916498;29;20193;-89
2022/04/26 16:47:32;;;;;;;4.68;3.17;;;15.10;98.50;;;;;;4916460;29;20210;-90
2022/04/26 16:49:58;;;;;;;4.53;3.22;;;15.00;98.90;;;;;;4917196;29;20607;-89
2022/04/26 16:52:23;;;;;;;3.35;2.78;;;14.90;99.90;;;;;;4917901;29;20244;-90
2022/04/26 16:54:50;;;;;;;5.28;2.88;;;14.90;99.90;;;;;;4916538;29;20541;-89
2022/04/26 16:57:17;;;;;;;3.75;2.78;;;14.80;99.90;;;;;;4916499;29;20607;-89
2022/04/26 16:59:43;;;;;;;6.82;4.38;;;14.80;99.90;;;;;;4916315;29;20210;-89
2022/04/26 17:02:09;;;;;;;5.65;3.83;;;14.70;99.90;;;;;;4917176;29;20187;-89
2022/04/26 17:04:37;;;;;;;4.55;3.65;;;14.60;99.90;;;;;;4915920;29;20214;-89
2022/04/26 17:07:03;;;;;;;4.00;3.20;;;14.60;99.90;;;;;;4915907;29;20202;-89
2022/04/26 17:09:30;;;;;;;5.20;3.00;;;14.60;99.90;;;;;;4915972;29;20746;-89
2022/04/26 17:11:56;;;;;;;3.38;2.55;;;14.60;99.90;;;;;;4915999;29;20545;-89
2022/04/26 17:14:21;;;;;;;5.22;2.50;;;14.50;99.90;;;;;;4916167;29;20171;-90